createdAt,value
2018-09-14T00:01:46.925Z,53.27
2018-09-14T00:04:18.828Z,51.83
2018-09-14T00:06:50.289Z,51.53
2018-09-14T00:09:21.785Z,53.77
2018-09-14T00:11:53.126Z,50.37
2018-09-14T00:14:24.489Z,51.80
2018-09-14T00:16:55.930Z,51.00
2018-09-14T00:19:27.644Z,50.37
2018-09-14T00:21:58.964Z,53.83
2018-09-14T00:24:31.353Z,51.07
2018-09-14T00:27:03.115Z,54.20
2018-09-14T00:29:34.967Z,51.70
2018-09-14T00:32:08.025Z,54.07
2018-09-14T00:34:39.672Z,52.80
2018-09-14T00:37:11.161Z,53.70
2018-09-14T00:39:42.866Z,53.30
2018-09-14T00:42:14.293Z,52.27
2018-09-14T00:44:46.265Z,55.40
2018-09-14T00:47:17.523Z,54.70
2018-09-14T00:49:49.177Z,53.80
2018-09-14T00:52:20.334Z,52.90
2018-09-14T00:54:52.062Z,53.30
2018-09-14T00:57:23.673Z,57.07
2018-09-14T00:59:55.255Z,54.80
2018-09-14T01:02:26.789Z,58.30
2018-09-14T01:04:58.190Z,60.10
2018-09-14T01:07:29.511Z,58.97
2018-09-14T01:10:01.010Z,56.57
2018-09-14T01:12:32.926Z,58.77
2018-09-14T01:15:05.503Z,58.03
2018-09-14T01:17:36.677Z,54.40
2018-09-14T01:20:09.123Z,56.93
2018-09-14T01:22:40.630Z,57.73
2018-09-14T01:25:12.689Z,56.80
2018-09-14T01:27:44.093Z,55.13
2018-09-14T01:30:16.178Z,54.30
2018-09-14T01:32:48.450Z,53.57
2018-09-14T01:35:24.833Z,53.70
2018-09-14T01:37:56.437Z,52.80
2018-09-14T01:40:28.257Z,54.47
2018-09-14T01:42:59.749Z,53.33
2018-09-14T01:45:31.185Z,53.20
2018-09-14T01:48:02.568Z,56.10
2018-09-14T01:50:34.511Z,54.20
2018-09-14T01:53:05.980Z,54.27
2018-09-14T01:55:37.439Z,55.17
2018-09-14T01:58:08.874Z,53.70
2018-09-14T02:00:40.538Z,55.33
2018-09-14T02:03:11.781Z,54.70
2018-09-14T02:05:43.641Z,53.27
2018-09-14T02:08:14.858Z,55.60
2018-09-14T02:10:46.760Z,56.30
2018-09-14T02:13:18.161Z,56.30
2018-09-14T02:15:49.849Z,59.47
2018-09-14T02:18:21.342Z,61.13
2018-09-14T02:20:52.969Z,59.90
2018-09-14T02:23:24.322Z,56.10
2018-09-14T02:25:56.167Z,59.03
2018-09-14T02:28:27.485Z,62.90
2018-09-14T02:30:59.342Z,57.50
2018-09-14T02:33:32.785Z,59.60
2018-09-14T02:36:05.222Z,59.03
2018-09-14T02:38:36.845Z,61.23
2018-09-14T02:41:08.704Z,61.50
2018-09-14T02:43:40.177Z,60.80
2018-09-14T02:46:11.959Z,60.37
2018-09-14T02:48:43.205Z,63.20
2018-09-14T02:51:14.934Z,57.80
2018-09-14T02:53:46.853Z,57.10
2018-09-14T02:56:18.470Z,59.60
2018-09-14T02:58:50.198Z,60.17
2018-09-14T03:01:21.750Z,60.50
2018-09-14T03:03:52.918Z,56.50
2018-09-14T03:06:24.896Z,56.63
2018-09-14T03:08:56.278Z,53.50
2018-09-14T03:11:29.025Z,53.77
2018-09-14T03:14:00.556Z,57.90
2018-09-14T03:16:32.171Z,54.90
2018-09-14T03:19:04.069Z,53.07
2018-09-14T03:21:35.697Z,51.17
2018-09-14T03:24:07.241Z,51.10
2018-09-14T03:26:38.733Z,53.13
2018-09-14T03:29:10.066Z,51.10
2018-09-14T03:31:41.789Z,51.97
2018-09-14T03:34:14.818Z,51.17
2018-09-14T03:36:46.737Z,50.53
2018-09-14T03:39:18.352Z,49.93
2018-09-14T03:41:50.241Z,47.10
2018-09-14T03:44:21.729Z,47.90
2018-09-14T03:46:53.318Z,47.83
2018-09-14T03:49:24.609Z,44.27
2018-09-14T03:51:56.434Z,46.60
2018-09-14T03:54:27.985Z,42.80
2018-09-14T03:56:59.850Z,45.00
2018-09-14T03:59:31.178Z,44.87
2018-09-14T04:02:02.834Z,42.17
2018-09-14T04:04:34.212Z,43.20
2018-09-14T04:07:05.605Z,41.33
2018-09-14T04:09:36.801Z,39.67
2018-09-14T04:12:08.561Z,41.03
2018-09-14T04:14:40.208Z,39.03
2018-09-14T04:17:12.138Z,32.17
2018-09-14T04:19:43.529Z,36.43
2018-09-14T04:22:15.345Z,39.90
2018-09-14T04:24:46.842Z,47.03
2018-09-14T04:27:18.562Z,36.43
2018-09-14T04:29:49.953Z,35.20
2018-09-14T04:32:21.519Z,33.43
2018-09-14T04:34:54.297Z,34.30
2018-09-14T04:37:29.386Z,33.87
2018-09-14T04:40:02.174Z,35.63
2018-09-14T04:42:36.413Z,34.40
2018-09-14T04:45:07.686Z,31.80
2018-09-14T04:47:39.653Z,31.43
2018-09-14T04:50:11.230Z,32.50
2018-09-14T04:52:42.935Z,32.23
2018-09-14T04:55:13.892Z,34.77
2018-09-14T04:57:45.089Z,35.47
2018-09-14T05:00:16.389Z,37.13
2018-09-14T05:02:48.315Z,36.83
2018-09-14T05:05:19.406Z,33.28
2018-09-14T05:07:50.478Z,33.85
2018-09-14T05:10:21.689Z,31.62
2018-09-14T05:12:53.042Z,32.10
2018-09-14T05:15:24.082Z,31.85
2018-09-14T05:17:55.690Z,32.03
2018-09-14T05:20:26.781Z,33.95
2018-09-14T05:22:58.332Z,33.20
2018-09-14T05:25:29.373Z,36.23
2018-09-14T05:28:00.543Z,34.50
2018-09-14T05:30:31.573Z,35.70
2018-09-14T05:33:02.755Z,35.07
2018-09-14T05:35:35.047Z,34.30
2018-09-14T05:38:06.648Z,34.20
2018-09-14T05:40:37.761Z,34.83
2018-09-14T05:43:09.319Z,33.98
2018-09-14T05:45:40.507Z,33.10
2018-09-14T05:48:11.931Z,33.90
2018-09-14T05:50:43.168Z,30.75
2018-09-14T05:53:14.501Z,31.75
2018-09-14T05:55:45.488Z,33.20
2018-09-14T05:58:16.646Z,34.25
2018-09-14T06:00:47.842Z,35.85
2018-09-14T06:03:19.448Z,35.15
2018-09-14T06:05:51.454Z,36.98
2018-09-14T06:08:23.862Z,37.30
2018-09-14T06:10:54.718Z,38.00
2018-09-14T06:13:26.250Z,39.47
2018-09-14T06:15:57.373Z,37.67
2018-09-14T06:18:29.660Z,40.10
2018-09-14T06:21:00.821Z,40.10
2018-09-14T06:23:32.170Z,37.77
2018-09-14T06:26:03.349Z,38.90
2018-09-14T06:28:34.842Z,37.03
2018-09-14T06:31:08.212Z,38.20
2018-09-14T06:33:39.778Z,37.47
2018-09-14T06:36:12.189Z,36.40
2018-09-14T06:38:43.851Z,35.58
2018-09-14T06:41:14.986Z,36.35
2018-09-14T06:43:48.288Z,36.15
2018-09-14T06:46:19.405Z,35.92
2018-09-14T06:48:52.366Z,34.80
2018-09-14T06:51:24.229Z,35.05
2018-09-14T06:53:55.380Z,35.03
2018-09-14T06:56:26.589Z,33.48
2018-09-14T06:58:57.846Z,36.00
2018-09-14T07:01:29.147Z,34.70
2018-09-14T07:04:00.954Z,36.13
2018-09-14T07:06:32.201Z,35.67
2018-09-14T07:09:03.834Z,36.90
2018-09-14T07:11:34.834Z,37.35
2018-09-14T07:14:06.382Z,35.90
2018-09-14T07:16:37.552Z,35.93
2018-09-14T07:19:08.993Z,38.10
2018-09-14T07:21:40.525Z,36.30
2018-09-14T07:24:12.148Z,37.00
2018-09-14T07:26:43.205Z,36.70
2018-09-14T07:29:14.623Z,36.00
2018-09-14T07:31:45.882Z,37.60
2018-09-14T07:34:17.274Z,37.10
2018-09-14T07:36:49.726Z,37.00
2018-09-14T07:39:21.164Z,37.23
2018-09-14T07:41:52.259Z,37.87
2018-09-14T07:44:23.529Z,37.90
2018-09-14T07:46:55.794Z,36.43
2018-09-14T07:49:31.471Z,39.17
2018-09-14T07:52:02.511Z,38.57
2018-09-14T07:54:33.858Z,38.17
2018-09-14T07:57:06.163Z,39.70
2018-09-14T07:59:37.480Z,37.90
2018-09-14T08:02:08.837Z,41.27
2018-09-14T08:04:40.072Z,42.33
2018-09-14T08:07:11.484Z,39.70
2018-09-14T08:09:43.478Z,38.87
2018-09-14T08:12:14.578Z,39.40
2018-09-14T08:14:47.353Z,38.47
2018-09-14T08:17:18.446Z,40.50
2018-09-14T08:19:49.703Z,39.67
2018-09-14T08:22:20.845Z,38.30
2018-09-14T08:24:52.209Z,39.20
2018-09-14T08:27:23.347Z,38.50
2018-09-14T08:29:54.578Z,40.50
2018-09-14T08:32:25.703Z,38.33
2018-09-14T08:34:57.326Z,40.73
2018-09-14T08:37:29.906Z,40.00
2018-09-14T08:40:01.091Z,38.93
2018-09-14T08:42:32.079Z,42.00
2018-09-14T08:45:04.557Z,43.17
2018-09-14T08:47:35.687Z,42.57
2018-09-14T08:50:07.379Z,43.40
2018-09-14T08:52:38.366Z,41.37
2018-09-14T08:55:09.777Z,43.13
2018-09-14T08:57:40.977Z,43.50
2018-09-14T09:00:12.383Z,42.53
2018-09-14T09:02:43.557Z,44.63
2018-09-14T09:05:14.805Z,44.03
2018-09-14T09:07:45.973Z,42.90
2018-09-14T09:10:17.326Z,43.63
2018-09-14T09:12:49.052Z,47.43
2018-09-14T09:15:20.461Z,44.43
2018-09-14T09:17:51.988Z,44.73
2018-09-14T09:20:23.312Z,44.90
2018-09-14T09:22:54.595Z,46.30
2018-09-14T09:25:26.073Z,44.03
2018-09-14T09:27:57.198Z,45.07
2018-09-14T09:30:28.697Z,44.97
2018-09-14T09:32:59.707Z,43.83
2018-09-14T09:35:30.869Z,45.17
2018-09-14T09:38:04.729Z,43.53
2018-09-14T09:40:36.214Z,43.93
2018-09-14T09:43:07.420Z,46.30
2018-09-14T09:45:38.956Z,45.50
2018-09-14T09:48:10.221Z,45.40
2018-09-14T09:50:41.828Z,43.80
2018-09-14T09:53:13.081Z,47.00
2018-09-14T09:55:44.530Z,47.93
2018-09-14T09:58:16.633Z,51.10
2018-09-14T10:00:52.573Z,52.00
2018-09-14T10:03:28.438Z,52.70
2018-09-14T10:06:04.453Z,53.87
2018-09-14T10:08:35.370Z,52.87
2018-09-14T10:11:06.733Z,57.70
2018-09-14T10:13:37.894Z,58.57
2018-09-14T10:16:09.250Z,58.10
2018-09-14T10:18:40.377Z,55.60
2018-09-14T10:21:12.178Z,54.30
2018-09-14T10:23:43.646Z,57.40
2018-09-14T10:26:15.074Z,55.73
2018-09-14T10:28:46.182Z,54.07
2018-09-14T10:31:17.483Z,56.00
2018-09-14T10:33:48.754Z,53.40
2018-09-14T10:36:21.221Z,52.37
2018-09-14T10:38:53.404Z,49.27
2018-09-14T10:41:24.881Z,54.07
2018-09-14T10:43:55.972Z,51.40
2018-09-14T10:46:27.663Z,54.70
2018-09-14T10:48:59.303Z,52.97
2018-09-14T10:51:30.917Z,54.00
2018-09-14T10:54:02.154Z,55.63
2018-09-14T10:56:33.821Z,58.73
2018-09-14T10:59:05.790Z,59.80
2018-09-14T11:01:37.498Z,56.83
2018-09-14T11:04:08.954Z,60.57
2018-09-14T11:06:40.784Z,63.20
2018-09-14T11:09:13.953Z,65.60
2018-09-14T11:11:45.782Z,66.90
2018-09-14T11:14:16.992Z,64.13
2018-09-14T11:16:48.778Z,70.53
2018-09-14T11:19:19.949Z,67.27
2018-09-14T11:21:51.866Z,67.63
2018-09-14T11:24:23.338Z,65.70
2018-09-14T11:26:55.102Z,69.10
2018-09-14T11:29:26.672Z,66.67
2018-09-14T11:31:58.630Z,72.90
2018-09-14T11:34:29.994Z,71.83
2018-09-14T11:37:01.701Z,69.57
2018-09-14T11:39:35.260Z,71.17
2018-09-14T11:42:07.154Z,71.30
2018-09-14T11:44:38.405Z,72.90
2018-09-14T11:47:11.717Z,73.20
2018-09-14T11:49:42.771Z,68.63
2018-09-14T11:52:14.734Z,68.00
2018-09-14T11:54:46.032Z,68.47
2018-09-14T11:57:18.048Z,71.20
2018-09-14T11:59:49.422Z,71.70
2018-09-14T12:02:24.289Z,70.67
2018-09-14T12:04:56.556Z,74.63
2018-09-14T12:07:28.511Z,73.47
2018-09-14T12:10:00.326Z,76.63
2018-09-14T12:12:31.966Z,76.20
2018-09-14T12:15:03.407Z,77.20
2018-09-14T12:17:35.373Z,80.97
2018-09-14T12:20:06.893Z,76.60
2018-09-14T12:22:38.430Z,80.60
2018-09-14T12:25:09.831Z,75.90
2018-09-14T12:27:41.102Z,72.67
2018-09-14T12:30:12.541Z,71.77
2018-09-14T12:32:44.329Z,72.33
2018-09-14T12:35:15.738Z,70.30
2018-09-14T12:37:47.304Z,68.97
2018-09-14T12:40:19.615Z,68.17
2018-09-14T12:42:51.223Z,73.90
2018-09-14T12:45:22.822Z,75.03
2018-09-14T12:47:54.441Z,73.33
2018-09-14T12:50:25.788Z,72.97
2018-09-14T12:52:57.891Z,72.87
2018-09-14T12:55:29.418Z,70.40
2018-09-14T12:58:00.931Z,73.30
2018-09-14T13:00:32.261Z,73.30
2018-09-14T13:03:04.673Z,70.37
2018-09-14T13:05:36.177Z,69.57
2018-09-14T13:08:07.896Z,70.67
2018-09-14T13:10:39.290Z,70.73
2018-09-14T13:13:10.799Z,65.93
2018-09-14T13:15:42.434Z,66.70
2018-09-14T13:18:13.909Z,69.07
2018-09-14T13:20:45.225Z,64.07
2018-09-14T13:23:16.848Z,66.03
2018-09-14T13:25:48.309Z,70.17
2018-09-14T13:28:20.242Z,66.97
2018-09-14T13:30:51.374Z,67.03
2018-09-14T13:33:22.944Z,66.90
2018-09-14T13:35:53.848Z,67.57
2018-09-14T13:38:25.025Z,64.80
2018-09-14T13:40:57.156Z,66.77
2018-09-14T13:43:28.429Z,63.90
2018-09-14T13:45:59.720Z,65.40
2018-09-14T13:48:31.121Z,66.50
2018-09-14T13:51:03.074Z,62.30
2018-09-14T13:59:16.201Z,69.43
2018-09-14T14:01:47.162Z,68.17
2018-09-14T14:04:18.645Z,64.17
2018-09-14T14:06:49.460Z,64.33
2018-09-14T14:09:21.162Z,65.27
2018-09-14T14:11:51.930Z,70.57
2018-09-14T14:14:22.985Z,66.40
2018-09-14T14:16:53.970Z,65.30
2018-09-14T14:19:25.713Z,64.00
2018-09-14T14:21:56.777Z,63.87
2018-09-14T14:24:28.970Z,69.80
2018-09-14T14:27:00.113Z,67.80
2018-09-14T14:29:32.229Z,68.27
2018-09-14T14:32:03.876Z,69.50
2018-09-14T14:34:35.422Z,66.27
2018-09-14T14:37:06.584Z,68.30
2018-09-14T14:39:39.143Z,66.70
2018-09-14T14:42:11.065Z,67.80
2018-09-14T14:44:42.777Z,69.30
2018-09-14T14:47:13.886Z,68.03
2018-09-14T14:49:45.206Z,64.87
2018-09-14T14:52:16.276Z,66.30
2018-09-14T14:54:47.774Z,70.07
2018-09-14T14:57:18.868Z,73.30
2018-09-14T14:59:50.226Z,65.03
2018-09-14T15:02:21.366Z,66.13
2018-09-14T15:04:52.551Z,71.90
2018-09-14T15:07:23.662Z,67.10
2018-09-14T15:09:55.053Z,68.17
2018-09-14T15:12:26.233Z,70.20
2018-09-14T15:14:57.489Z,69.80
2018-09-14T15:17:28.550Z,70.90
2018-09-14T15:19:59.753Z,65.27
2018-09-14T15:22:30.895Z,69.80
2018-09-14T15:25:02.036Z,70.67
2018-09-14T15:27:33.205Z,73.37
2018-09-14T15:30:04.774Z,72.97
2018-09-14T15:32:36.014Z,71.53
2018-09-14T15:35:07.337Z,66.77
2018-09-14T15:37:38.414Z,66.77
2018-09-14T15:40:09.741Z,69.83
2018-09-14T15:42:42.042Z,65.77
2018-09-14T15:45:14.049Z,69.20
2018-09-14T15:47:45.106Z,66.90
2018-09-14T15:50:17.262Z,68.60
2018-09-14T15:52:48.417Z,69.30
2018-09-14T15:55:19.948Z,62.20
2018-09-14T15:57:52.014Z,63.80
2018-09-14T16:00:23.831Z,65.97
2018-09-14T16:02:55.140Z,62.57
2018-09-14T16:05:26.647Z,63.90
2018-09-14T16:07:57.922Z,64.13
2018-09-14T16:10:29.155Z,64.17
2018-09-14T16:13:00.489Z,67.20
2018-09-14T16:15:31.802Z,62.90
2018-09-14T16:18:04.500Z,64.10
2018-09-14T16:20:35.714Z,62.50
2018-09-14T16:23:07.535Z,63.43
2018-09-14T16:25:39.009Z,66.83
2018-09-14T16:28:10.110Z,67.10
2018-09-14T16:30:41.582Z,60.50
2018-09-14T16:33:13.542Z,64.93
2018-09-14T16:35:44.748Z,62.37
2018-09-14T16:38:15.509Z,63.83
2018-09-14T16:40:46.668Z,63.17
2018-09-14T16:43:18.269Z,62.73
2018-09-14T16:45:49.310Z,64.40
2018-09-14T16:48:20.167Z,63.47
2018-09-14T16:50:51.176Z,63.90
2018-09-14T16:53:22.036Z,61.10
2018-09-14T16:55:53.134Z,62.83
2018-09-14T16:58:24.317Z,63.30
2018-09-14T17:00:55.861Z,66.60
2018-09-14T17:03:27.004Z,59.40
2018-09-14T17:05:58.428Z,63.37
2018-09-14T17:08:29.449Z,58.70
2018-09-14T17:11:01.867Z,63.10
2018-09-14T17:13:32.898Z,70.60
2018-09-14T17:16:04.213Z,65.70
2018-09-14T17:18:38.594Z,65.17
2018-09-14T17:21:10.061Z,67.13
2018-09-14T17:23:41.162Z,66.80
2018-09-14T17:26:12.618Z,68.40
2018-09-14T17:28:44.277Z,67.90
2018-09-14T17:31:15.902Z,69.87
2018-09-14T17:33:47.782Z,69.67
2018-09-14T17:36:19.462Z,67.60
2018-09-14T17:38:50.998Z,71.50
2018-09-14T17:41:22.676Z,70.33
2018-09-14T17:43:55.450Z,65.53
2018-09-14T17:46:27.091Z,65.87
2018-09-14T17:48:58.952Z,63.90
2018-09-14T17:51:31.190Z,62.73
2018-09-14T17:54:02.555Z,70.17
2018-09-14T17:56:34.491Z,72.10
2018-09-14T17:59:05.727Z,70.40
2018-09-14T18:01:37.977Z,64.27
2018-09-14T18:04:09.501Z,71.17
2018-09-14T18:06:41.148Z,65.43
2018-09-14T18:09:13.814Z,68.23
2018-09-14T18:11:45.205Z,64.93
2018-09-14T18:14:17.261Z,70.17
2018-09-14T18:16:49.215Z,68.27
2018-09-14T18:19:20.685Z,69.40
2018-09-14T18:21:52.510Z,68.07
2018-09-14T18:24:23.938Z,68.57
2018-09-14T18:26:55.575Z,65.83
2018-09-14T18:29:27.393Z,72.30
2018-09-14T18:31:59.042Z,76.27
2018-09-14T18:34:30.451Z,72.73
2018-09-14T18:37:02.177Z,74.23
2018-09-14T18:39:33.610Z,81.50
2018-09-14T18:42:05.741Z,76.27
2018-09-14T18:44:38.344Z,75.13
2018-09-14T18:47:10.132Z,77.37
2018-09-14T18:49:41.566Z,77.63
2018-09-14T18:52:13.151Z,78.87
2018-09-14T18:54:44.382Z,79.67
2018-09-14T18:57:15.597Z,76.00
2018-09-14T18:59:47.006Z,75.67
2018-09-14T19:02:18.913Z,78.17
2018-09-14T19:04:50.213Z,78.73
2018-09-14T19:07:21.793Z,81.90
2018-09-14T19:09:53.008Z,80.70
2018-09-14T19:12:25.069Z,82.60
2018-09-14T19:14:56.529Z,83.40
2018-09-14T19:17:28.323Z,84.67
2018-09-14T19:19:59.573Z,81.73
2018-09-14T19:22:31.309Z,88.30
2018-09-14T19:25:03.024Z,81.40
2018-09-14T19:27:35.034Z,89.00
2018-09-14T19:30:06.325Z,86.17
2018-09-14T19:32:38.181Z,80.67
2018-09-14T19:35:09.744Z,81.60
2018-09-14T19:37:41.104Z,82.33
2018-09-14T19:40:12.605Z,81.83
2018-09-14T19:42:44.197Z,88.23
2018-09-14T19:45:16.672Z,81.73
2018-09-14T19:47:48.413Z,84.40
2018-09-14T19:50:19.882Z,81.73
2018-09-14T19:52:51.509Z,82.70
2018-09-14T19:55:22.856Z,83.60
2018-09-14T19:57:54.557Z,86.80
2018-09-14T20:00:26.106Z,90.67
2018-09-14T20:02:57.725Z,86.90
2018-09-14T20:05:29.143Z,84.20
2018-09-14T20:08:01.505Z,92.67
2018-09-14T20:10:33.009Z,92.50
2018-09-14T20:13:04.797Z,93.40
2018-09-14T20:15:36.179Z,93.53
2018-09-14T20:18:08.166Z,96.30
2018-09-14T20:20:39.410Z,94.90
2018-09-14T20:23:11.198Z,97.60
2018-09-14T20:25:42.881Z,100.43
2018-09-14T20:28:14.994Z,101.50
2018-09-14T20:30:46.157Z,100.17
2018-09-14T20:33:17.964Z,103.57
2018-09-14T20:35:49.441Z,100.87
2018-09-14T20:38:21.122Z,102.83
2018-09-14T20:40:52.565Z,101.80
2018-09-14T20:43:24.256Z,104.87
2018-09-14T20:45:57.029Z,102.90
2018-09-14T20:48:28.777Z,104.00
2018-09-14T20:51:00.527Z,100.20
2018-09-14T20:53:32.675Z,99.77
2018-09-14T20:56:04.056Z,103.83
2018-09-14T20:58:35.811Z,96.50
2018-09-14T21:01:07.335Z,99.70
2018-09-14T21:03:39.165Z,98.03
2018-09-14T21:06:10.599Z,98.50
2018-09-14T21:08:42.213Z,102.00
2018-09-14T21:11:13.645Z,101.83
2018-09-14T21:13:45.870Z,98.80
2018-09-14T21:16:17.419Z,94.73
2018-09-14T21:18:49.014Z,96.13
2018-09-14T21:21:20.469Z,94.87
2018-09-14T21:23:52.083Z,94.63
2018-09-14T21:26:23.907Z,91.23
2018-09-14T21:28:55.875Z,96.67
2018-09-14T21:31:27.328Z,92.43
2018-09-14T21:33:59.120Z,88.40
2018-09-14T21:36:30.460Z,91.33
2018-09-14T21:39:02.123Z,86.73
2018-09-14T21:41:33.341Z,87.27
2018-09-14T21:44:05.150Z,89.57
2018-09-14T21:46:38.117Z,85.73
2018-09-14T21:49:10.116Z,88.67
2018-09-14T21:51:41.481Z,88.10
2018-09-14T21:54:13.212Z,87.00
2018-09-14T21:56:44.422Z,85.50
2018-09-14T21:59:16.410Z,82.93
2018-09-14T22:01:47.953Z,81.07
2018-09-14T22:04:19.510Z,80.93
2018-09-14T22:06:50.715Z,78.70
2018-09-14T22:09:22.330Z,80.23
2018-09-14T22:11:53.636Z,80.53
2018-09-14T22:14:25.397Z,81.33
2018-09-14T22:16:56.811Z,81.37
2018-09-14T22:19:28.479Z,84.60
2018-09-14T22:22:00.074Z,88.53
2018-09-14T22:24:31.865Z,80.80
2018-09-14T22:27:04.510Z,83.93
2018-09-14T22:29:35.993Z,82.33
2018-09-14T22:32:07.407Z,85.10
2018-09-14T22:34:39.172Z,85.00
2018-09-14T22:37:10.341Z,88.33
2018-09-14T22:39:41.959Z,82.97
2018-09-14T22:42:13.319Z,84.70
2018-09-14T22:44:44.897Z,79.60
2018-09-14T22:47:17.495Z,75.17
2018-09-14T22:49:49.340Z,65.17
2018-09-14T22:52:20.751Z,65.47
2018-09-14T22:54:52.481Z,62.97
2018-09-14T22:57:23.879Z,62.80
2018-09-14T22:59:55.534Z,61.40
2018-09-14T23:02:26.956Z,60.13
2018-09-14T23:04:58.747Z,54.20
2018-09-14T23:07:30.394Z,52.90
2018-09-14T23:10:02.025Z,49.83
2018-09-14T23:12:33.397Z,52.07
2018-09-14T23:15:05.178Z,51.10
2018-09-14T23:17:36.922Z,48.53
2018-09-14T23:20:08.544Z,46.40
2018-09-14T23:22:40.035Z,42.50
2018-09-14T23:25:11.652Z,40.37
2018-09-14T23:27:43.031Z,40.57
2018-09-14T23:30:14.600Z,39.07
2018-09-14T23:32:45.777Z,40.10
2018-09-14T23:35:17.165Z,38.83
2018-09-14T23:37:48.520Z,40.80
2018-09-14T23:40:19.931Z,41.07
2018-09-14T23:42:51.317Z,40.07
2018-09-14T23:45:22.794Z,39.43
2018-09-14T23:47:55.521Z,39.07
2018-09-14T23:50:26.966Z,41.77
2018-09-14T23:52:58.357Z,41.07
2018-09-14T23:55:30.337Z,40.67
2018-09-14T23:58:01.882Z,39.70
